sensor_id;sensor_type;location;lat;lon;timestamp;P1;durP1;ratioP1;P2;durP2;ratioP2
39188;SDS011;24915;50.858;4.376;2023-09-19T00:02:00;9.75;;;2.80;;
39188;SDS011;24915;50.858;4.376;2023-09-19T00:04:32;15.35;;;4.28;;
39188;SDS011;24915;50.858;4.376;2023-09-19T00:06:58;21.27;;;3.30;;
39188;SDS011;24915;50.858;4.376;2023-09-19T00:09:24;18.38;;;4.68;;
39188;SDS011;24915;50.858;4.376;2023-09-19T00:11:53;25.10;;;6.88;;
39188;SDS011;24915;50.858;4.376;2023-09-19T00:14:19;24.58;;;8.43;;
39188;SDS011;24915;50.858;4.376;2023-09-19T00:16:45;20.85;;;5.43;;
39188;SDS011;24915;50.858;4.376;2023-09-19T00:19:14;25.92;;;5.65;;
39188;SDS011;24915;50.858;4.376;2023-09-19T00:21:41;21.58;;;5.20;;
39188;SDS011;24915;50.858;4.376;2023-09-19T00:24:08;20.75;;;5.93;;
39188;SDS011;24915;50.858;4.376;2023-09-19T00:26:34;13.02;;;3.38;;
39188;SDS011;24915;50.858;4.376;2023-09-19T00:29:00;18.13;;;4.07;;
39188;SDS011;24915;50.858;4.376;2023-09-19T00:31:29;23.42;;;3.85;;
39188;SDS011;24915;50.858;4.376;2023-09-19T00:33:55;12.55;;;3.53;;
39188;SDS011;24915;50.858;4.376;2023-09-19T00:36:25;23.45;;;5.15;;
39188;SDS011;24915;50.858;4.376;2023-09-19T00:38:50;11.90;;;3.13;;
39188;SDS011;24915;50.858;4.376;2023-09-19T00:41:16;19.23;;;3.92;;
39188;SDS011;24915;50.858;4.376;2023-09-19T00:43:42;14.05;;;3.47;;
39188;SDS011;24915;50.858;4.376;2023-09-19T00:46:08;23.38;;;4.20;;
39188;SDS011;24915;50.858;4.376;2023-09-19T00:48:37;26.77;;;10.93;;
39188;SDS011;24915;50.858;4.376;2023-09-19T00:51:06;14.82;;;3.92;;
39188;SDS011;24915;50.858;4.376;2023-09-19T00:53:32;14.38;;;4.13;;
39188;SDS011;24915;50.858;4.376;2023-09-19T00:55:59;23.13;;;4.10;;
39188;SDS011;24915;50.858;4.376;2023-09-19T00:58:25;13.57;;;3.10;;
39188;SDS011;24915;50.858;4.376;2023-09-19T01:00:50;18.67;;;4.13;;
39188;SDS011;24915;50.858;4.376;2023-09-19T01:03:18;16.00;;;4.07;;
39188;SDS011;24915;50.858;4.376;2023-09-19T01:05:44;21.33;;;3.90;;
39188;SDS011;24915;50.858;4.376;2023-09-19T01:08:09;19.63;;;4.07;;
39188;SDS011;24915;50.858;4.376;2023-09-19T01:10:37;31.40;;;10.02;;
39188;SDS011;24915;50.858;4.376;2023-09-19T01:14:29;18.83;;;4.72;;
39188;SDS011;24915;50.858;4.376;2023-09-19T01:22:05;20.90;;;6.15;;
39188;SDS011;24915;50.858;4.376;2023-09-19T01:27:33;19.77;;;4.30;;
39188;SDS011;24915;50.858;4.376;2023-09-19T01:30:20;12.30;;;4.28;;
39188;SDS011;24915;50.858;4.376;2023-09-19T01:32:50;21.55;;;5.03;;
39188;SDS011;24915;50.858;4.376;2023-09-19T01:35:17;17.67;;;4.40;;
39188;SDS011;24915;50.858;4.376;2023-09-19T01:37:43;16.20;;;3.70;;
39188;SDS011;24915;50.858;4.376;2023-09-19T01:40:10;20.80;;;4.90;;
39188;SDS011;24915;50.858;4.376;2023-09-19T01:42:58;21.85;;;5.20;;
39188;SDS011;24915;50.858;4.376;2023-09-19T01:48:15;26.10;;;4.03;;
39188;SDS011;24915;50.858;4.376;2023-09-19T01:51:06;17.50;;;3.95;;
39188;SDS011;24915;50.858;4.376;2023-09-19T01:56:12;15.50;;;3.58;;
39188;SDS011;24915;50.858;4.376;2023-09-19T01:58:48;20.60;;;3.95;;
39188;SDS011;24915;50.858;4.376;2023-09-19T02:01:17;20.67;;;3.17;;
39188;SDS011;24915;50.858;4.376;2023-09-19T02:03:47;22.23;;;4.40;;
39188;SDS011;24915;50.858;4.376;2023-09-19T02:06:14;21.88;;;4.00;;
39188;SDS011;24915;50.858;4.376;2023-09-19T02:08:40;13.35;;;4.13;;
39188;SDS011;24915;50.858;4.376;2023-09-19T02:11:06;25.77;;;4.50;;
39188;SDS011;24915;50.858;4.376;2023-09-19T02:13:32;21.95;;;3.95;;
39188;SDS011;24915;50.858;4.376;2023-09-19T02:15:58;23.75;;;3.53;;
39188;SDS011;24915;50.858;4.376;2023-09-19T02:18:24;22.58;;;3.53;;
39188;SDS011;24915;50.858;4.376;2023-09-19T02:20:53;22.38;;;4.63;;
39188;SDS011;24915;50.858;4.376;2023-09-19T02:23:19;17.00;;;3.83;;
39188;SDS011;24915;50.858;4.376;2023-09-19T02:25:54;15.02;;;3.97;;
39188;SDS011;24915;50.858;4.376;2023-09-19T02:28:20;23.85;;;4.07;;
39188;SDS011;24915;50.858;4.376;2023-09-19T02:30:48;17.63;;;3.65;;
39188;SDS011;24915;50.858;4.376;2023-09-19T02:33:14;23.40;;;4.13;;
39188;SDS011;24915;50.858;4.376;2023-09-19T02:35:40;26.42;;;3.90;;
39188;SDS011;24915;50.858;4.376;2023-09-19T02:38:05;22.40;;;3.55;;
39188;SDS011;24915;50.858;4.376;2023-09-19T02:40:36;28.25;;;4.50;;
39188;SDS011;24915;50.858;4.376;2023-09-19T02:43:02;15.57;;;4.18;;
39188;SDS011;24915;50.858;4.376;2023-09-19T02:45:29;22.60;;;4.38;;
39188;SDS011;24915;50.858;4.376;2023-09-19T02:47:55;15.27;;;3.38;;
39188;SDS011;24915;50.858;4.376;2023-09-19T02:50:22;16.73;;;3.70;;
39188;SDS011;24915;50.858;4.376;2023-09-19T02:52:48;16.85;;;3.92;;
39188;SDS011;24915;50.858;4.376;2023-09-19T02:55:14;14.57;;;3.47;;
39188;SDS011;24915;50.858;4.376;2023-09-19T02:57:49;21.48;;;3.65;;
39188;SDS011;24915;50.858;4.376;2023-09-19T03:00:17;19.45;;;3.97;;
39188;SDS011;24915;50.858;4.376;2023-09-19T03:02:48;20.83;;;4.13;;
39188;SDS011;24915;50.858;4.376;2023-09-19T03:05:15;18.42;;;4.00;;
39188;SDS011;24915;50.858;4.376;2023-09-19T03:07:41;15.35;;;3.97;;
39188;SDS011;24915;50.858;4.376;2023-09-19T03:10:08;13.73;;;3.55;;
39188;SDS011;24915;50.858;4.376;2023-09-19T03:12:34;17.38;;;4.15;;
39188;SDS011;24915;50.858;4.376;2023-09-19T03:15:00;14.57;;;3.50;;
39188;SDS011;24915;50.858;4.376;2023-09-19T03:17:26;18.88;;;4.35;;
39188;SDS011;24915;50.858;4.376;2023-09-19T03:19:52;15.43;;;3.80;;
39188;SDS011;24915;50.858;4.376;2023-09-19T03:22:19;19.73;;;3.70;;
39188;SDS011;24915;50.858;4.376;2023-09-19T03:24:44;18.98;;;4.28;;
39188;SDS011;24915;50.858;4.376;2023-09-19T03:27:11;19.77;;;3.97;;
39188;SDS011;24915;50.858;4.376;2023-09-19T03:29:41;16.40;;;3.97;;
39188;SDS011;24915;50.858;4.376;2023-09-19T03:32:07;16.15;;;3.67;;
39188;SDS011;24915;50.858;4.376;2023-09-19T03:34:35;15.30;;;3.05;;
39188;SDS011;24915;50.858;4.376;2023-09-19T03:37:07;17.05;;;3.83;;
39188;SDS011;24915;50.858;4.376;2023-09-19T03:39:33;16.40;;;3.25;;
39188;SDS011;24915;50.858;4.376;2023-09-19T03:41:59;17.33;;;3.10;;
39188;SDS011;24915;50.858;4.376;2023-09-19T03:44:25;17.75;;;3.25;;
39188;SDS011;24915;50.858;4.376;2023-09-19T03:46:51;19.10;;;3.65;;
39188;SDS011;24915;50.858;4.376;2023-09-19T03:49:16;14.77;;;3.40;;
39188;SDS011;24915;50.858;4.376;2023-09-19T03:51:42;18.60;;;3.60;;
39188;SDS011;24915;50.858;4.376;2023-09-19T03:54:08;16.08;;;3.25;;
39188;SDS011;24915;50.858;4.376;2023-09-19T03:56:34;16.95;;;3.83;;
39188;SDS011;24915;50.858;4.376;2023-09-19T03:58:59;16.55;;;4.22;;
39188;SDS011;24915;50.858;4.376;2023-09-19T04:01:25;19.70;;;3.47;;
39188;SDS011;24915;50.858;4.376;2023-09-19T04:03:52;18.27;;;3.53;;
39188;SDS011;24915;50.858;4.376;2023-09-19T04:06:18;18.67;;;4.07;;
39188;SDS011;24915;50.858;4.376;2023-09-19T04:08:44;18.45;;;3.92;;
39188;SDS011;24915;50.858;4.376;2023-09-19T04:11:11;25.08;;;4.95;;
39188;SDS011;24915;50.858;4.376;2023-09-19T04:13:37;17.77;;;3.22;;
39188;SDS011;24915;50.858;4.376;2023-09-19T04:16:03;17.10;;;4.00;;
39188;SDS011;24915;50.858;4.376;2023-09-19T04:18:37;21.92;;;3.47;;
39188;SDS011;24915;50.858;4.376;2023-09-19T04:21:04;15.18;;;3.58;;
39188;SDS011;24915;50.858;4.376;2023-09-19T04:23:31;18.40;;;3.58;;
39188;SDS011;24915;50.858;4.376;2023-09-19T04:25:58;19.13;;;3.08;;
39188;SDS011;24915;50.858;4.376;2023-09-19T04:28:23;20.38;;;3.55;;
39188;SDS011;24915;50.858;4.376;2023-09-19T04:30:49;22.98;;;3.70;;
39188;SDS011;24915;50.858;4.376;2023-09-19T04:33:15;22.58;;;4.13;;
39188;SDS011;24915;50.858;4.376;2023-09-19T04:35:41;17.45;;;3.58;;
39188;SDS011;24915;50.858;4.376;2023-09-19T04:38:09;16.20;;;3.92;;
39188;SDS011;24915;50.858;4.376;2023-09-19T04:40:36;12.85;;;3.42;;
39188;SDS011;24915;50.858;4.376;2023-09-19T04:43:04;18.20;;;3.55;;
39188;SDS011;24915;50.858;4.376;2023-09-19T04:45:31;21.05;;;4.15;;
39188;SDS011;24915;50.858;4.376;2023-09-19T04:47:56;18.55;;;3.67;;
39188;SDS011;24915;50.858;4.376;2023-09-19T04:50:22;16.42;;;3.47;;
39188;SDS011;24915;50.858;4.376;2023-09-19T04:52:51;16.30;;;3.97;;
39188;SDS011;24915;50.858;4.376;2023-09-19T04:55:18;23.38;;;3.45;;
39188;SDS011;24915;50.858;4.376;2023-09-19T04:57:45;13.80;;;3.15;;
39188;SDS011;24915;50.858;4.376;2023-09-19T05:00:21;17.60;;;3.22;;
39188;SDS011;24915;50.858;4.376;2023-09-19T05:02:52;18.05;;;3.35;;
39188;SDS011;24915;50.858;4.376;2023-09-19T05:05:21;17.50;;;3.35;;
39188;SDS011;24915;50.858;4.376;2023-09-19T05:07:48;18.73;;;4.13;;
39188;SDS011;24915;50.858;4.376;2023-09-19T05:10:14;20.30;;;3.17;;
39188;SDS011;24915;50.858;4.376;2023-09-19T05:12:43;20.83;;;3.88;;
39188;SDS011;24915;50.858;4.376;2023-09-19T05:15:12;22.08;;;3.72;;
39188;SDS011;24915;50.858;4.376;2023-09-19T05:17:39;17.50;;;3.88;;
39188;SDS011;24915;50.858;4.376;2023-09-19T05:20:05;24.48;;;4.28;;
39188;SDS011;24915;50.858;4.376;2023-09-19T05:22:39;23.88;;;4.20;;
39188;SDS011;24915;50.858;4.376;2023-09-19T05:25:06;20.13;;;4.88;;
39188;SDS011;24915;50.858;4.376;2023-09-19T05:27:32;19.75;;;3.65;;
39188;SDS011;24915;50.858;4.376;2023-09-19T05:29:59;22.73;;;4.18;;
39188;SDS011;24915;50.858;4.376;2023-09-19T05:32:24;22.52;;;4.65;;
39188;SDS011;24915;50.858;4.376;2023-09-19T05:34:50;23.85;;;3.38;;
39188;SDS011;24915;50.858;4.376;2023-09-19T05:37:21;17.83;;;3.55;;
39188;SDS011;24915;50.858;4.376;2023-09-19T05:39:48;25.50;;;3.63;;
39188;SDS011;24915;50.858;4.376;2023-09-19T05:42:14;24.80;;;3.75;;
39188;SDS011;24915;50.858;4.376;2023-09-19T05:44:39;17.08;;;3.58;;
39188;SDS011;24915;50.858;4.376;2023-09-19T05:47:05;17.13;;;3.42;;
39188;SDS011;24915;50.858;4.376;2023-09-19T05:49:34;20.55;;;3.47;;
39188;SDS011;24915;50.858;4.376;2023-09-19T05:52:04;25.60;;;4.28;;
39188;SDS011;24915;50.858;4.376;2023-09-19T05:54:30;22.33;;;4.13;;
39188;SDS011;24915;50.858;4.376;2023-09-19T05:56:56;20.50;;;3.97;;
39188;SDS011;24915;50.858;4.376;2023-09-19T05:59:22;19.67;;;3.50;;
39188;SDS011;24915;50.858;4.376;2023-09-19T06:01:49;13.05;;;3.08;;
39188;SDS011;24915;50.858;4.376;2023-09-19T06:04:14;17.15;;;2.90;;
39188;SDS011;24915;50.858;4.376;2023-09-19T06:06:40;16.20;;;3.50;;
39188;SDS011;24915;50.858;4.376;2023-09-19T06:09:06;14.95;;;3.63;;
39188;SDS011;24915;50.858;4.376;2023-09-19T06:11:35;20.35;;;3.53;;
39188;SDS011;24915;50.858;4.376;2023-09-19T06:14:01;20.52;;;3.25;;
39188;SDS011;24915;50.858;4.376;2023-09-19T06:16:28;21.48;;;3.45;;
39188;SDS011;24915;50.858;4.376;2023-09-19T06:18:58;21.92;;;3.88;;
39188;SDS011;24915;50.858;4.376;2023-09-19T06:21:27;18.25;;;3.33;;
39188;SDS011;24915;50.858;4.376;2023-09-19T06:23:53;25.33;;;4.15;;
39188;SDS011;24915;50.858;4.376;2023-09-19T06:26:19;21.83;;;3.95;;
39188;SDS011;24915;50.858;4.376;2023-09-19T06:28:44;15.07;;;3.63;;
39188;SDS011;24915;50.858;4.376;2023-09-19T06:31:10;18.27;;;3.13;;
39188;SDS011;24915;50.858;4.376;2023-09-19T06:33:38;23.60;;;3.60;;
39188;SDS011;24915;50.858;4.376;2023-09-19T06:36:04;16.67;;;3.72;;
39188;SDS011;24915;50.858;4.376;2023-09-19T06:38:31;17.92;;;3.15;;
39188;SDS011;24915;50.858;4.376;2023-09-19T06:40:59;22.98;;;3.60;;
39188;SDS011;24915;50.858;4.376;2023-09-19T06:43:26;19.15;;;3.30;;
39188;SDS011;24915;50.858;4.376;2023-09-19T06:45:53;12.73;;;3.30;;
39188;SDS011;24915;50.858;4.376;2023-09-19T06:48:19;23.50;;;4.13;;
39188;SDS011;24915;50.858;4.376;2023-09-19T06:50:46;18.70;;;3.42;;
39188;SDS011;24915;50.858;4.376;2023-09-19T06:53:13;16.45;;;2.75;;
39188;SDS011;24915;50.858;4.376;2023-09-19T06:55:39;18.17;;;5.03;;
39188;SDS011;24915;50.858;4.376;2023-09-19T06:58:05;15.35;;;3.17;;
39188;SDS011;24915;50.858;4.376;2023-09-19T07:00:31;13.73;;;3.30;;
39188;SDS011;24915;50.858;4.376;2023-09-19T07:05:29;14.23;;;3.40;;
39188;SDS011;24915;50.858;4.376;2023-09-19T07:07:58;15.85;;;3.75;;
39188;SDS011;24915;50.858;4.376;2023-09-19T07:10:26;19.33;;;3.78;;
39188;SDS011;24915;50.858;4.376;2023-09-19T07:15:26;19.23;;;3.47;;
39188;SDS011;24915;50.858;4.376;2023-09-19T07:17:53;21.63;;;3.63;;
39188;SDS011;24915;50.858;4.376;2023-09-19T07:20:19;17.60;;;3.67;;
39188;SDS011;24915;50.858;4.376;2023-09-19T07:22:45;12.85;;;3.17;;
39188;SDS011;24915;50.858;4.376;2023-09-19T07:25:13;19.13;;;3.72;;
39188;SDS011;24915;50.858;4.376;2023-09-19T07:27:42;15.85;;;3.08;;
39188;SDS011;24915;50.858;4.376;2023-09-19T07:30:09;18.90;;;3.85;;
39188;SDS011;24915;50.858;4.376;2023-09-19T07:32:36;21.05;;;4.03;;
39188;SDS011;24915;50.858;4.376;2023-09-19T07:35:03;24.83;;;3.60;;
39188;SDS011;24915;50.858;4.376;2023-09-19T07:37:31;24.02;;;4.03;;
39188;SDS011;24915;50.858;4.376;2023-09-19T07:39:58;12.43;;;3.22;;
39188;SDS011;24915;50.858;4.376;2023-09-19T07:42:26;18.60;;;3.55;;
39188;SDS011;24915;50.858;4.376;2023-09-19T07:44:52;25.65;;;3.95;;
39188;SDS011;24915;50.858;4.376;2023-09-19T07:47:19;21.70;;;3.63;;
39188;SDS011;24915;50.858;4.376;2023-09-19T07:49:48;20.70;;;4.82;;
39188;SDS011;24915;50.858;4.376;2023-09-19T07:52:14;20.13;;;4.40;;
39188;SDS011;24915;50.858;4.376;2023-09-19T07:54:40;23.30;;;3.88;;
39188;SDS011;24915;50.858;4.376;2023-09-19T07:57:09;17.60;;;3.53;;
39188;SDS011;24915;50.858;4.376;2023-09-19T07:59:36;19.67;;;3.67;;
39188;SDS011;24915;50.858;4.376;2023-09-19T08:02:03;18.88;;;3.00;;
39188;SDS011;24915;50.858;4.376;2023-09-19T08:04:30;14.85;;;3.70;;
39188;SDS011;24915;50.858;4.376;2023-09-19T08:06:57;17.98;;;3.95;;
39188;SDS011;24915;50.858;4.376;2023-09-19T08:09:26;21.92;;;3.72;;
39188;SDS011;24915;50.858;4.376;2023-09-19T08:11:52;25.48;;;4.30;;
39188;SDS011;24915;50.858;4.376;2023-09-19T08:14:18;25.23;;;4.05;;
39188;SDS011;24915;50.858;4.376;2023-09-19T08:16:44;18.40;;;3.38;;
39188;SDS011;24915;50.858;4.376;2023-09-19T08:19:10;21.45;;;3.60;;
39188;SDS011;24915;50.858;4.376;2023-09-19T08:21:35;21.23;;;3.55;;
39188;SDS011;24915;50.858;4.376;2023-09-19T08:24:01;16.25;;;3.60;;
39188;SDS011;24915;50.858;4.376;2023-09-19T08:26:29;19.70;;;3.55;;
39188;SDS011;24915;50.858;4.376;2023-09-19T08:28:55;18.80;;;3.13;;
39188;SDS011;24915;50.858;4.376;2023-09-19T08:31:21;26.92;;;4.10;;
39188;SDS011;24915;50.858;4.376;2023-09-19T08:33:48;19.23;;;3.80;;
39188;SDS011;24915;50.858;4.376;2023-09-19T08:36:16;18.95;;;4.22;;
39188;SDS011;24915;50.858;4.376;2023-09-19T08:38:42;19.80;;;3.50;;
39188;SDS011;24915;50.858;4.376;2023-09-19T08:41:07;24.83;;;3.33;;
39188;SDS011;24915;50.858;4.376;2023-09-19T08:43:34;14.15;;;3.33;;
39188;SDS011;24915;50.858;4.376;2023-09-19T08:46:10;21.42;;;3.67;;
39188;SDS011;24915;50.858;4.376;2023-09-19T08:49:03;16.85;;;3.47;;
39188;SDS011;24915;50.858;4.376;2023-09-19T08:53:58;12.60;;;2.78;;
39188;SDS011;24915;50.858;4.376;2023-09-19T08:56:31;15.63;;;3.55;;
39188;SDS011;24915;50.858;4.376;2023-09-19T09:01:32;18.90;;;3.42;;
39188;SDS011;24915;50.858;4.376;2023-09-19T09:03:58;18.00;;;3.08;;
39188;SDS011;24915;50.858;4.376;2023-09-19T09:06:26;15.85;;;3.35;;
39188;SDS011;24915;50.858;4.376;2023-09-19T09:08:54;18.02;;;3.28;;
39188;SDS011;24915;50.858;4.376;2023-09-19T09:11:21;15.85;;;3.13;;
39188;SDS011;24915;50.858;4.376;2023-09-19T09:13:50;19.13;;;3.35;;
39188;SDS011;24915;50.858;4.376;2023-09-19T09:16:15;22.58;;;3.30;;
39188;SDS011;24915;50.858;4.376;2023-09-19T09:18:44;13.85;;;2.75;;
39188;SDS011;24915;50.858;4.376;2023-09-19T09:21:10;11.40;;;2.63;;
39188;SDS011;24915;50.858;4.376;2023-09-19T09:23:37;14.77;;;3.42;;
39188;SDS011;24915;50.858;4.376;2023-09-19T09:26:03;17.05;;;3.05;;
39188;SDS011;24915;50.858;4.376;2023-09-19T09:28:31;19.40;;;3.63;;
39188;SDS011;24915;50.858;4.376;2023-09-19T09:30:59;11.77;;;2.65;;
39188;SDS011;24915;50.858;4.376;2023-09-19T09:33:33;15.93;;;3.35;;
39188;SDS011;24915;50.858;4.376;2023-09-19T09:36:00;15.88;;;2.90;;
39188;SDS011;24915;50.858;4.376;2023-09-19T09:38:28;13.10;;;3.10;;
39188;SDS011;24915;50.858;4.376;2023-09-19T09:41:15;15.75;;;2.63;;
39188;SDS011;24915;50.858;4.376;2023-09-19T09:43:52;13.18;;;2.78;;
39188;SDS011;24915;50.858;4.376;2023-09-19T09:46:19;10.15;;;2.70;;
39188;SDS011;24915;50.858;4.376;2023-09-19T09:49:02;16.35;;;3.17;;
39188;SDS011;24915;50.858;4.376;2023-09-19T09:52:05;16.35;;;2.97;;
39188;SDS011;24915;50.858;4.376;2023-09-19T09:54:32;9.00;;;2.75;;
39188;SDS011;24915;50.858;4.376;2023-09-19T09:57:02;11.23;;;2.75;;
39188;SDS011;24915;50.858;4.376;2023-09-19T09:59:52;12.65;;;2.53;;
39188;SDS011;24915;50.858;4.376;2023-09-19T10:02:30;16.80;;;2.63;;
39188;SDS011;24915;50.858;4.376;2023-09-19T10:07:52;19.02;;;4.60;;
39188;SDS011;24915;50.858;4.376;2023-09-19T10:10:31;9.70;;;2.15;;
39188;SDS011;24915;50.858;4.376;2023-09-19T10:13:19;9.75;;;2.65;;
39188;SDS011;24915;50.858;4.376;2023-09-19T10:15:49;15.55;;;2.47;;
39188;SDS011;24915;50.858;4.376;2023-09-19T10:18:23;8.95;;;2.35;;
39188;SDS011;24915;50.858;4.376;2023-09-19T10:20:54;14.13;;;2.90;;
39188;SDS011;24915;50.858;4.376;2023-09-19T10:23:21;15.98;;;2.70;;
39188;SDS011;24915;50.858;4.376;2023-09-19T10:25:48;11.77;;;2.50;;
39188;SDS011;24915;50.858;4.376;2023-09-19T10:28:15;11.93;;;2.40;;
39188;SDS011;24915;50.858;4.376;2023-09-19T10:30:47;9.82;;;2.22;;
39188;SDS011;24915;50.858;4.376;2023-09-19T10:33:16;10.15;;;2.08;;
39188;SDS011;24915;50.858;4.376;2023-09-19T10:35:46;9.93;;;2.08;;
39188;SDS011;24915;50.858;4.376;2023-09-19T10:38:14;9.15;;;2.10;;
39188;SDS011;24915;50.858;4.376;2023-09-19T10:40:44;11.45;;;1.75;;
39188;SDS011;24915;50.858;4.376;2023-09-19T10:43:15;6.65;;;2.15;;
39188;SDS011;24915;50.858;4.376;2023-09-19T10:45:46;11.75;;;2.92;;
39188;SDS011;24915;50.858;4.376;2023-09-19T10:48:17;10.15;;;2.50;;
39188;SDS011;24915;50.858;4.376;2023-09-19T10:50:53;14.00;;;2.47;;
39188;SDS011;24915;50.858;4.376;2023-09-19T10:56:17;12.52;;;2.13;;
39188;SDS011;24915;50.858;4.376;2023-09-19T10:58:46;13.70;;;2.70;;
39188;SDS011;24915;50.858;4.376;2023-09-19T11:01:14;7.95;;;2.17;;
39188;SDS011;24915;50.858;4.376;2023-09-19T11:03:41;7.78;;;2.25;;
39188;SDS011;24915;50.858;4.376;2023-09-19T11:06:11;7.32;;;1.65;;
39188;SDS011;24915;50.858;4.376;2023-09-19T11:08:52;7.40;;;1.65;;
39188;SDS011;24915;50.858;4.376;2023-09-19T11:14:28;49.63;;;3.42;;
39188;SDS011;24915;50.858;4.376;2023-09-19T11:30:39;3.45;;;1.40;;
39188;SDS011;24915;50.858;4.376;2023-09-19T11:33:27;9.65;;;1.85;;
39188;SDS011;24915;50.858;4.376;2023-09-19T11:35:58;7.57;;;1.40;;
39188;SDS011;24915;50.858;4.376;2023-09-19T11:43:49;6.40;;;1.40;;
39188;SDS011;24915;50.858;4.376;2023-09-19T11:46:16;7.65;;;1.80;;
39188;SDS011;24915;50.858;4.376;2023-09-19T11:48:47;9.05;;;1.70;;
39188;SDS011;24915;50.858;4.376;2023-09-19T11:51:16;5.90;;;1.92;;
39188;SDS011;24915;50.858;4.376;2023-09-19T11:53:53;6.05;;;1.40;;
39188;SDS011;24915;50.858;4.376;2023-09-19T11:56:21;7.82;;;1.98;;
39188;SDS011;24915;50.858;4.376;2023-09-19T11:58:53;11.05;;;2.53;;
39188;SDS011;24915;50.858;4.376;2023-09-19T12:01:29;4.40;;;1.77;;
39188;SDS011;24915;50.858;4.376;2023-09-19T12:03:57;9.68;;;1.80;;
39188;SDS011;24915;50.858;4.376;2023-09-19T12:06:26;8.27;;;2.08;;
39188;SDS011;24915;50.858;4.376;2023-09-19T12:08:52;8.80;;;2.22;;
39188;SDS011;24915;50.858;4.376;2023-09-19T12:11:19;5.88;;;1.52;;
39188;SDS011;24915;50.858;4.376;2023-09-19T12:13:48;11.40;;;2.05;;
39188;SDS011;24915;50.858;4.376;2023-09-19T12:16:17;6.32;;;1.40;;
39188;SDS011;24915;50.858;4.376;2023-09-19T12:18:48;7.63;;;1.90;;
39188;SDS011;24915;50.858;4.376;2023-09-19T12:21:25;7.35;;;1.42;;
39188;SDS011;24915;50.858;4.376;2023-09-19T12:24:13;7.47;;;1.90;;
39188;SDS011;24915;50.858;4.376;2023-09-19T12:26:39;6.70;;;1.80;;
39188;SDS011;24915;50.858;4.376;2023-09-19T12:29:15;11.52;;;1.70;;
39188;SDS011;24915;50.858;4.376;2023-09-19T12:31:52;9.88;;;2.08;;
39188;SDS011;24915;50.858;4.376;2023-09-19T12:34:27;8.77;;;1.65;;
39188;SDS011;24915;50.858;4.376;2023-09-19T12:37:04;10.90;;;1.80;;
39188;SDS011;24915;50.858;4.376;2023-09-19T12:39:48;5.80;;;1.50;;
39188;SDS011;24915;50.858;4.376;2023-09-19T12:42:22;6.25;;;1.92;;
39188;SDS011;24915;50.858;4.376;2023-09-19T12:44:51;8.90;;;2.35;;
39188;SDS011;24915;50.858;4.376;2023-09-19T12:47:22;8.70;;;1.83;;
39188;SDS011;24915;50.858;4.376;2023-09-19T12:50:22;7.03;;;1.45;;
39188;SDS011;24915;50.858;4.376;2023-09-19T12:52:51;8.75;;;1.92;;
39188;SDS011;24915;50.858;4.376;2023-09-19T12:58:01;5.38;;;1.77;;
39188;SDS011;24915;50.858;4.376;2023-09-19T13:00:40;7.90;;;2.05;;
39188;SDS011;24915;50.858;4.376;2023-09-19T13:03:14;12.93;;;1.95;;
39188;SDS011;24915;50.858;4.376;2023-09-19T13:05:59;10.50;;;1.90;;
39188;SDS011;24915;50.858;4.376;2023-09-19T13:11:03;8.10;;;1.75;;
39188;SDS011;24915;50.858;4.376;2023-09-19T13:13:32;9.70;;;1.25;;
39188;SDS011;24915;50.858;4.376;2023-09-19T13:15:58;13.45;;;1.80;;
39188;SDS011;24915;50.858;4.376;2023-09-19T13:18:26;8.60;;;1.95;;
39188;SDS011;24915;50.858;4.376;2023-09-19T13:21:11;5.95;;;1.30;;
39188;SDS011;24915;50.858;4.376;2023-09-19T13:23:49;8.38;;;2.05;;
39188;SDS011;24915;50.858;4.376;2023-09-19T13:26:21;8.73;;;1.77;;
39188;SDS011;24915;50.858;4.376;2023-09-19T13:28:47;4.80;;;1.45;;
39188;SDS011;24915;50.858;4.376;2023-09-19T13:31:14;7.18;;;1.67;;
39188;SDS011;24915;50.858;4.376;2023-09-19T13:33:44;11.32;;;1.77;;
39188;SDS011;24915;50.858;4.376;2023-09-19T13:36:11;6.65;;;1.88;;
39188;SDS011;24915;50.858;4.376;2023-09-19T13:38:38;9.05;;;1.88;;
39188;SDS011;24915;50.858;4.376;2023-09-19T13:41:05;5.97;;;1.80;;
39188;SDS011;24915;50.858;4.376;2023-09-19T13:43:31;8.88;;;1.67;;
39188;SDS011;24915;50.858;4.376;2023-09-19T13:45:57;5.25;;;1.55;;
39188;SDS011;24915;50.858;4.376;2023-09-19T13:48:23;5.65;;;1.92;;
39188;SDS011;24915;50.858;4.376;2023-09-19T13:50:49;10.40;;;1.73;;
39188;SDS011;24915;50.858;4.376;2023-09-19T13:53:15;4.50;;;1.75;;
39188;SDS011;24915;50.858;4.376;2023-09-19T13:55:42;7.18;;;1.73;;
39188;SDS011;24915;50.858;4.376;2023-09-19T13:58:08;6.00;;;1.50;;
39188;SDS011;24915;50.858;4.376;2023-09-19T14:00:36;7.13;;;1.67;;
39188;SDS011;24915;50.858;4.376;2023-09-19T14:03:01;5.70;;;2.00;;
39188;SDS011;24915;50.858;4.376;2023-09-19T14:05:29;6.35;;;1.80;;
39188;SDS011;24915;50.858;4.376;2023-09-19T14:07:56;4.72;;;1.67;;
39188;SDS011;24915;50.858;4.376;2023-09-19T14:10:22;6.93;;;1.73;;
39188;SDS011;24915;50.858;4.376;2023-09-19T14:12:48;5.68;;;1.88;;
39188;SDS011;24915;50.858;4.376;2023-09-19T14:15:13;5.05;;;1.90;;
39188;SDS011;24915;50.858;4.376;2023-09-19T14:17:39;11.57;;;2.63;;
39188;SDS011;24915;50.858;4.376;2023-09-19T14:20:10;7.25;;;2.10;;
39188;SDS011;24915;50.858;4.376;2023-09-19T14:22:36;6.65;;;2.20;;
39188;SDS011;24915;50.858;4.376;2023-09-19T14:25:02;12.65;;;2.05;;
39188;SDS011;24915;50.858;4.376;2023-09-19T14:27:29;6.68;;;2.22;;
39188;SDS011;24915;50.858;4.376;2023-09-19T14:29:55;7.88;;;2.03;;
39188;SDS011;24915;50.858;4.376;2023-09-19T14:32:22;11.43;;;2.03;;
39188;SDS011;24915;50.858;4.376;2023-09-19T14:34:48;6.63;;;2.10;;
39188;SDS011;24915;50.858;4.376;2023-09-19T14:37:14;6.65;;;1.77;;
39188;SDS011;24915;50.858;4.376;2023-09-19T14:39:41;8.88;;;2.40;;
39188;SDS011;24915;50.858;4.376;2023-09-19T14:42:10;8.10;;;2.28;;
39188;SDS011;24915;50.858;4.376;2023-09-19T14:44:36;6.50;;;1.95;;
39188;SDS011;24915;50.858;4.376;2023-09-19T14:47:05;9.45;;;1.98;;
39188;SDS011;24915;50.858;4.376;2023-09-19T14:49:35;7.43;;;2.28;;
39188;SDS011;24915;50.858;4.376;2023-09-19T14:52:07;6.13;;;1.60;;
39188;SDS011;24915;50.858;4.376;2023-09-19T14:54:33;9.93;;;2.13;;
39188;SDS011;24915;50.858;4.376;2023-09-19T14:57:00;6.30;;;1.83;;
39188;SDS011;24915;50.858;4.376;2023-09-19T14:59:33;7.55;;;1.95;;
39188;SDS011;24915;50.858;4.376;2023-09-19T15:02:05;7.93;;;2.03;;
39188;SDS011;24915;50.858;4.376;2023-09-19T15:04:31;10.70;;;1.98;;
39188;SDS011;24915;50.858;4.376;2023-09-19T15:06:58;9.52;;;2.40;;
39188;SDS011;24915;50.858;4.376;2023-09-19T15:09:24;11.32;;;2.47;;
39188;SDS011;24915;50.858;4.376;2023-09-19T15:11:54;7.97;;;2.60;;
39188;SDS011;24915;50.858;4.376;2023-09-19T15:14:20;9.60;;;2.22;;
39188;SDS011;24915;50.858;4.376;2023-09-19T15:16:47;5.82;;;2.00;;
39188;SDS011;24915;50.858;4.376;2023-09-19T15:19:13;9.68;;;2.75;;
39188;SDS011;24915;50.858;4.376;2023-09-19T15:21:40;10.43;;;2.50;;
39188;SDS011;24915;50.858;4.376;2023-09-19T15:24:06;10.88;;;2.70;;
39188;SDS011;24915;50.858;4.376;2023-09-19T15:26:35;11.07;;;2.30;;
39188;SDS011;24915;50.858;4.376;2023-09-19T15:29:07;4.75;;;1.45;;
39188;SDS011;24915;50.858;4.376;2023-09-19T15:31:33;5.43;;;2.05;;
39188;SDS011;24915;50.858;4.376;2023-09-19T15:34:01;9.63;;;2.47;;
39188;SDS011;24915;50.858;4.376;2023-09-19T15:36:27;7.10;;;2.20;;
39188;SDS011;24915;50.858;4.376;2023-09-19T15:41:22;10.27;;;2.40;;
39188;SDS011;24915;50.858;4.376;2023-09-19T15:43:52;6.10;;;1.98;;
39188;SDS011;24915;50.858;4.376;2023-09-19T15:46:19;9.20;;;1.90;;
39188;SDS011;24915;50.858;4.376;2023-09-19T15:48:45;10.23;;;2.45;;